createdAt,value
2022-12-31T00:02:30.169Z,18.70
2022-12-31T00:05:01.115Z,18.80
2022-12-31T00:10:06.213Z,18.20
2022-12-31T00:12:37.118Z,18.60
2022-12-31T00:15:10.931Z,18.50
2022-12-31T00:17:41.953Z,18.10
2022-12-31T00:20:12.838Z,18.60
2022-12-31T00:22:43.755Z,18.40
2022-12-31T00:25:14.723Z,18.10
2022-12-31T00:27:45.646Z,19.20
2022-12-31T00:30:16.708Z,18.50
2022-12-31T00:32:47.565Z,19.10
2022-12-31T00:35:18.539Z,19.00
2022-12-31T00:37:53.261Z,18.40
2022-12-31T00:40:24.145Z,18.70
2022-12-31T00:42:55.015Z,18.70
2022-12-31T00:45:25.890Z,19.00
2022-12-31T00:47:56.822Z,18.60
2022-12-31T00:50:27.666Z,19.20
2022-12-31T00:52:58.562Z,19.20
2022-12-31T00:55:31.037Z,18.60
2022-12-31T00:58:01.982Z,19.30
2022-12-31T01:00:32.960Z,19.30
2022-12-31T01:03:04.722Z,19.00
2022-12-31T01:05:37.138Z,19.50
2022-12-31T01:08:08.040Z,19.40
2022-12-31T01:10:57.639Z,19.10
2022-12-31T01:13:28.497Z,19.30
2022-12-31T01:15:59.439Z,18.90
2022-12-31T01:18:30.313Z,19.00
2022-12-31T01:21:07.784Z,19.00
2022-12-31T01:23:39.247Z,19.10
2022-12-31T01:26:12.850Z,19.00
2022-12-31T01:28:43.913Z,19.10
2022-12-31T01:31:18.366Z,19.50
2022-12-31T01:33:50.048Z,18.90
2022-12-31T01:36:26.593Z,18.80
2022-12-31T01:39:01.324Z,19.00
2022-12-31T01:41:41.973Z,18.70
2022-12-31T01:44:12.877Z,18.80
2022-12-31T01:46:53.233Z,18.70
2022-12-31T01:49:35.081Z,18.70
2022-12-31T01:52:12.796Z,19.30
2022-12-31T01:54:56.328Z,19.00
2022-12-31T01:57:27.759Z,19.00
2022-12-31T02:00:00.920Z,19.30
2022-12-31T02:02:32.573Z,19.20
2022-12-31T02:05:31.515Z,19.30
2022-12-31T02:08:03.597Z,19.50
2022-12-31T02:10:34.860Z,19.10
2022-12-31T02:13:06.059Z,19.40
2022-12-31T02:16:00.217Z,19.60
2022-12-31T02:18:57.434Z,19.40
2022-12-31T02:21:40.511Z,20.00
2022-12-31T02:24:44.739Z,20.30
2022-12-31T02:27:39.108Z,20.30
2022-12-31T02:30:15.436Z,20.70
2022-12-31T02:33:17.101Z,20.90
2022-12-31T02:36:06.226Z,20.80
2022-12-31T02:38:42.695Z,20.40
2022-12-31T02:41:36.163Z,20.50
2022-12-31T02:44:29.126Z,20.30
2022-12-31T02:47:08.705Z,20.50
2022-12-31T02:50:14.014Z,20.60
2022-12-31T02:53:05.905Z,20.60
2022-12-31T02:56:04.179Z,20.70
2022-12-31T02:59:23.646Z,20.60
2022-12-31T03:02:16.568Z,20.00
2022-12-31T03:04:56.769Z,20.50
2022-12-31T03:07:31.957Z,20.40
2022-12-31T03:10:03.057Z,20.50
2022-12-31T03:12:47.929Z,20.50
2022-12-31T03:15:24.893Z,20.20
2022-12-31T03:18:14.790Z,20.30
2022-12-31T03:21:10.032Z,20.20
2022-12-31T03:23:50.259Z,20.10
2022-12-31T03:26:21.164Z,20.10
2022-12-31T03:28:52.026Z,20.40
2022-12-31T03:31:22.970Z,20.20
2022-12-31T03:33:53.963Z,20.00
2022-12-31T03:36:24.881Z,19.70
2022-12-31T03:38:55.809Z,20.30
2022-12-31T03:41:26.723Z,20.10
2022-12-31T03:43:57.587Z,20.10
2022-12-31T03:46:28.530Z,20.40
2022-12-31T03:48:59.383Z,20.30
2022-12-31T03:51:30.291Z,20.40
2022-12-31T03:54:01.155Z,20.30
2022-12-31T03:56:32.048Z,19.70
2022-12-31T03:59:02.925Z,20.10
2022-12-31T04:01:33.992Z,20.30
2022-12-31T04:04:04.959Z,19.90
2022-12-31T04:06:35.851Z,19.60
2022-12-31T04:09:06.710Z,19.80
2022-12-31T04:11:37.610Z,20.10
2022-12-31T04:14:08.628Z,20.30
2022-12-31T04:16:39.552Z,20.60
2022-12-31T04:19:11.954Z,20.70
2022-12-31T04:21:42.890Z,19.90
2022-12-31T04:24:13.772Z,20.30
2022-12-31T04:26:44.735Z,21.00
2022-12-31T04:29:15.708Z,20.90
2022-12-31T04:31:46.665Z,20.70
2022-12-31T04:34:17.634Z,20.40
2022-12-31T04:36:48.577Z,21.10
2022-12-31T04:39:19.540Z,20.50
2022-12-31T04:41:51.216Z,20.80
2022-12-31T04:44:22.419Z,21.30
2022-12-31T04:46:55.824Z,21.00
2022-12-31T04:49:26.711Z,21.20
2022-12-31T04:51:57.598Z,21.20
2022-12-31T04:54:28.480Z,21.00
2022-12-31T04:56:59.401Z,21.00
2022-12-31T04:59:30.352Z,20.80
2022-12-31T05:02:01.408Z,20.50
2022-12-31T05:04:32.454Z,21.40
2022-12-31T05:07:03.485Z,21.60
2022-12-31T05:09:34.650Z,21.20
2022-12-31T05:12:06.034Z,20.80
2022-12-31T05:14:39.721Z,20.80
2022-12-31T05:17:10.627Z,20.30
2022-12-31T05:19:41.505Z,20.20
2022-12-31T05:22:30.884Z,20.40
2022-12-31T05:25:01.841Z,20.20
2022-12-31T05:27:33.006Z,20.30
2022-12-31T05:30:06.455Z,20.80
2022-12-31T05:32:37.812Z,20.80
2022-12-31T05:35:09.378Z,20.10
2022-12-31T05:37:40.377Z,20.30
2022-12-31T05:40:12.804Z,20.10
2022-12-31T05:42:44.027Z,19.90
2022-12-31T05:45:15.489Z,19.70
2022-12-31T05:47:46.535Z,19.90
2022-12-31T05:50:17.760Z,20.30
2022-12-31T05:52:48.731Z,20.50
2022-12-31T05:55:19.651Z,20.20
2022-12-31T05:57:50.504Z,20.20
2022-12-31T06:00:21.606Z,20.50
2022-12-31T06:02:52.521Z,20.90
2022-12-31T06:05:26.269Z,20.40
2022-12-31T06:07:57.718Z,19.90
2022-12-31T06:10:28.676Z,20.30
2022-12-31T06:12:59.639Z,20.10
2022-12-31T06:15:30.729Z,19.60
2022-12-31T06:18:01.647Z,19.80
2022-12-31T06:20:32.584Z,19.70
2022-12-31T06:23:04.317Z,20.00
2022-12-31T06:25:37.067Z,19.70
2022-12-31T06:28:10.370Z,20.00
2022-12-31T06:30:44.254Z,20.00
2022-12-31T06:33:15.213Z,20.30
2022-12-31T06:35:46.157Z,19.80
2022-12-31T06:38:17.018Z,20.20
2022-12-31T06:40:47.959Z,20.30
2022-12-31T06:43:19.197Z,20.50
2022-12-31T06:45:50.164Z,20.20
2022-12-31T06:48:21.020Z,20.70
2022-12-31T06:50:51.908Z,19.90
2022-12-31T06:53:22.803Z,20.40
2022-12-31T06:55:54.084Z,19.80
2022-12-31T06:58:25.313Z,20.00
2022-12-31T07:01:40.103Z,20.00
2022-12-31T07:04:38.285Z,20.30
2022-12-31T07:07:22.096Z,20.20
2022-12-31T07:10:07.906Z,20.60
2022-12-31T07:13:30.141Z,20.50
2022-12-31T07:16:06.914Z,20.60
2022-12-31T07:18:48.268Z,20.90
2022-12-31T07:21:35.890Z,20.60
2022-12-31T07:24:09.674Z,20.40
2022-12-31T07:26:56.545Z,20.30
2022-12-31T07:29:41.088Z,20.10
2022-12-31T07:32:50.335Z,20.30
2022-12-31T07:35:35.047Z,20.00
2022-12-31T07:38:24.948Z,20.20
2022-12-31T07:41:17.273Z,20.10
2022-12-31T07:44:03.962Z,20.20
2022-12-31T07:46:40.532Z,20.50
2022-12-31T07:49:13.360Z,20.20
2022-12-31T07:51:47.648Z,20.10
2022-12-31T07:54:18.557Z,20.60
2022-12-31T07:56:51.092Z,20.60
2022-12-31T07:59:55.656Z,20.40
2022-12-31T08:03:03.069Z,20.80
2022-12-31T08:06:11.045Z,20.60
2022-12-31T08:08:47.420Z,20.70
2022-12-31T08:11:41.876Z,20.70
2022-12-31T08:14:14.180Z,21.00
2022-12-31T08:16:45.643Z,21.30
2022-12-31T08:19:30.715Z,21.00
2022-12-31T08:22:19.498Z,21.30
2022-12-31T08:25:14.960Z,20.80
2022-12-31T08:28:14.228Z,20.80
2022-12-31T08:31:09.032Z,21.20
2022-12-31T08:34:06.137Z,21.00
2022-12-31T08:37:13.802Z,21.00
2022-12-31T08:40:15.698Z,20.90
2022-12-31T08:43:11.569Z,21.40
2022-12-31T08:45:50.191Z,21.50
2022-12-31T08:48:37.029Z,22.30
2022-12-31T08:51:18.084Z,21.40
2022-12-31T08:53:53.445Z,21.20
2022-12-31T08:56:50.623Z,21.30
2022-12-31T08:59:53.377Z,21.30
2022-12-31T09:02:44.630Z,21.40
2022-12-31T09:05:47.609Z,21.80
2022-12-31T09:08:33.443Z,21.30
2022-12-31T09:11:31.001Z,21.50
2022-12-31T09:14:21.848Z,21.60
2022-12-31T09:17:31.587Z,22.00
2022-12-31T09:20:03.197Z,21.20
2022-12-31T09:22:34.320Z,21.50
2022-12-31T09:25:05.825Z,21.30
2022-12-31T09:28:06.835Z,21.40
2022-12-31T09:30:54.505Z,21.70
2022-12-31T09:33:52.833Z,21.40
2022-12-31T09:36:32.268Z,21.60
2022-12-31T09:39:46.855Z,21.90
2022-12-31T09:42:53.044Z,21.70
2022-12-31T09:46:05.917Z,22.10
2022-12-31T09:49:38.100Z,22.10
2022-12-31T09:52:43.791Z,22.10
2022-12-31T09:55:36.077Z,22.00
2022-12-31T09:58:41.522Z,22.00
2022-12-31T10:01:49.848Z,21.90
2022-12-31T10:04:45.087Z,22.10
2022-12-31T10:07:31.921Z,22.10
2022-12-31T10:10:11.881Z,22.60
2022-12-31T10:13:06.813Z,21.90
2022-12-31T10:15:54.341Z,22.40
2022-12-31T10:19:12.820Z,22.10
2022-12-31T10:22:19.891Z,22.30
2022-12-31T10:25:55.104Z,22.50
2022-12-31T10:28:51.403Z,22.70
2022-12-31T10:31:49.503Z,23.30
2022-12-31T10:34:34.263Z,23.10
2022-12-31T10:37:30.004Z,23.70
2022-12-31T10:40:32.224Z,23.30
2022-12-31T10:43:24.703Z,23.60
2022-12-31T10:46:39.033Z,23.60
2022-12-31T10:49:59.765Z,23.20
2022-12-31T10:53:07.918Z,23.50
2022-12-31T10:56:06.372Z,23.20
2022-12-31T10:59:02.987Z,23.70
2022-12-31T11:02:04.796Z,23.20
2022-12-31T11:05:03.180Z,23.50
2022-12-31T11:08:02.930Z,24.20
2022-12-31T11:11:19.197Z,23.80
2022-12-31T11:14:28.257Z,23.70
2022-12-31T11:17:28.647Z,23.90
2022-12-31T11:20:20.560Z,23.80
2022-12-31T11:23:39.499Z,23.70
2022-12-31T11:26:58.053Z,24.30
2022-12-31T11:30:11.245Z,24.00
2022-12-31T11:33:20.600Z,23.60
2022-12-31T11:36:18.712Z,23.80
2022-12-31T11:39:31.462Z,24.00
2022-12-31T11:42:39.516Z,24.20
2022-12-31T11:45:57.688Z,24.20
2022-12-31T11:48:45.083Z,24.60
2022-12-31T11:51:42.195Z,25.10
2022-12-31T11:54:54.302Z,24.10
2022-12-31T11:57:27.639Z,24.00
2022-12-31T12:00:21.712Z,24.10
2022-12-31T12:02:59.943Z,24.30
2022-12-31T12:05:31.777Z,24.40
2022-12-31T12:08:03.337Z,24.30
2022-12-31T12:10:46.097Z,24.40
2022-12-31T12:13:25.422Z,24.90
2022-12-31T12:16:03.153Z,25.10
2022-12-31T12:18:45.376Z,24.40
2022-12-31T12:21:17.496Z,25.20
2022-12-31T12:23:58.684Z,25.30
2022-12-31T12:26:41.592Z,25.30
2022-12-31T12:29:22.130Z,24.80
2022-12-31T12:32:15.381Z,25.10
2022-12-31T12:34:49.852Z,25.80
2022-12-31T12:37:37.056Z,25.10
2022-12-31T12:40:29.881Z,24.80
2022-12-31T12:43:04.273Z,25.30
2022-12-31T12:45:51.761Z,25.90
2022-12-31T12:48:42.457Z,25.20
2022-12-31T12:51:47.793Z,25.50
2022-12-31T12:55:05.944Z,25.30
2022-12-31T12:58:07.446Z,25.00
2022-12-31T13:01:38.664Z,25.10
2022-12-31T13:04:43.818Z,25.10
2022-12-31T13:07:35.177Z,24.70
2022-12-31T13:10:16.238Z,24.50
2022-12-31T13:13:25.646Z,24.80
2022-12-31T13:16:07.151Z,24.70
2022-12-31T13:19:11.875Z,24.50
2022-12-31T13:22:09.305Z,25.10
2022-12-31T13:24:59.618Z,24.80
2022-12-31T13:27:44.860Z,25.10
2022-12-31T13:30:45.976Z,24.90
2022-12-31T13:33:26.207Z,24.70
2022-12-31T13:35:59.333Z,24.90
2022-12-31T13:38:39.333Z,24.60
2022-12-31T13:41:21.715Z,24.20
2022-12-31T13:44:23.952Z,24.70
2022-12-31T13:47:10.300Z,25.20
2022-12-31T13:49:48.978Z,25.30
2022-12-31T13:52:55.125Z,25.20
2022-12-31T13:55:56.447Z,25.20
2022-12-31T13:58:40.889Z,25.50
2022-12-31T14:01:33.613Z,25.50
2022-12-31T14:04:33.144Z,25.60
2022-12-31T14:07:27.821Z,25.80
2022-12-31T14:10:01.740Z,25.70
2022-12-31T14:13:17.167Z,25.90
2022-12-31T14:16:06.693Z,25.50
2022-12-31T14:19:32.461Z,26.00
2022-12-31T14:22:44.061Z,25.20
2022-12-31T14:25:41.821Z,24.70
2022-12-31T14:28:53.364Z,25.60
2022-12-31T14:32:26.549Z,25.30
2022-12-31T14:35:37.500Z,24.70
2022-12-31T14:38:33.880Z,24.40
2022-12-31T14:41:54.477Z,24.30
2022-12-31T14:44:45.814Z,25.00
2022-12-31T14:47:54.038Z,25.10
2022-12-31T14:50:30.370Z,24.70
2022-12-31T14:53:04.311Z,25.40
2022-12-31T14:55:43.496Z,25.30
2022-12-31T14:58:32.688Z,24.70
2022-12-31T15:01:22.316Z,25.10
2022-12-31T15:03:58.245Z,25.20
2022-12-31T15:06:50.462Z,25.00
2022-12-31T15:10:05.906Z,24.80
2022-12-31T15:13:12.912Z,25.00
2022-12-31T15:16:31.867Z,25.00
2022-12-31T15:19:24.267Z,24.60
2022-12-31T15:22:03.177Z,24.60
2022-12-31T15:24:34.140Z,24.50
2022-12-31T15:27:07.042Z,24.50
2022-12-31T15:29:45.444Z,24.70
2022-12-31T15:32:25.291Z,24.70
2022-12-31T15:35:23.935Z,24.70
2022-12-31T15:38:37.725Z,24.40
2022-12-31T15:41:27.302Z,24.30
2022-12-31T15:44:25.568Z,24.30
2022-12-31T15:47:09.302Z,24.50
2022-12-31T15:49:45.806Z,24.40
2022-12-31T15:52:25.691Z,24.30
2022-12-31T15:54:58.181Z,24.20
2022-12-31T15:57:39.082Z,24.30
2022-12-31T16:00:22.927Z,24.30
2022-12-31T16:02:55.456Z,24.20
2022-12-31T16:05:27.936Z,24.10
2022-12-31T16:08:00.296Z,24.10
2022-12-31T16:10:32.920Z,24.30
2022-12-31T16:13:06.222Z,24.30
2022-12-31T16:15:37.363Z,24.10
2022-12-31T16:18:20.630Z,23.80
2022-12-31T16:20:54.406Z,23.90
2022-12-31T16:23:27.809Z,23.90
2022-12-31T16:26:02.174Z,23.70
2022-12-31T16:28:34.394Z,23.60
2022-12-31T16:31:18.109Z,23.20
2022-12-31T16:33:49.134Z,23.00
2022-12-31T16:36:24.391Z,22.90
2022-12-31T16:39:29.591Z,22.70
2022-12-31T16:42:18.357Z,22.70
2022-12-31T16:44:51.866Z,22.70
2022-12-31T16:47:35.974Z,22.60
2022-12-31T16:50:21.026Z,22.40
2022-12-31T16:53:00.187Z,22.40
2022-12-31T16:55:32.755Z,22.50
2022-12-31T16:58:19.942Z,22.30
2022-12-31T17:00:51.942Z,22.30
2022-12-31T17:03:25.285Z,22.40
2022-12-31T17:06:06.662Z,22.20
2022-12-31T17:08:50.083Z,22.30
2022-12-31T17:11:31.663Z,22.20
2022-12-31T17:14:11.667Z,21.80
2022-12-31T17:17:04.263Z,22.30
2022-12-31T17:19:47.385Z,22.30
2022-12-31T17:22:37.290Z,22.30
2022-12-31T17:25:28.130Z,22.20
2022-12-31T17:28:22.466Z,22.20
2022-12-31T17:31:33.997Z,22.10
2022-12-31T17:34:14.222Z,22.10
2022-12-31T17:37:06.325Z,22.10
2022-12-31T17:39:53.051Z,21.90
2022-12-31T17:42:40.403Z,21.90
2022-12-31T17:45:22.152Z,22.10
2022-12-31T17:47:55.602Z,22.10
2022-12-31T17:50:28.027Z,22.20
2022-12-31T17:53:18.050Z,22.00
2022-12-31T17:55:52.653Z,22.00
2022-12-31T17:58:45.877Z,21.90
2022-12-31T18:01:23.408Z,21.80
2022-12-31T18:03:54.621Z,21.80
2022-12-31T18:06:27.235Z,21.90
2022-12-31T18:08:58.129Z,21.70
2022-12-31T18:11:29.439Z,21.80
2022-12-31T18:14:00.318Z,21.80
2022-12-31T18:16:31.378Z,21.60
2022-12-31T18:19:02.384Z,21.50
2022-12-31T18:21:34.862Z,21.70
2022-12-31T18:24:06.725Z,21.60
2022-12-31T18:26:37.612Z,21.70
2022-12-31T18:29:17.526Z,21.90
2022-12-31T18:31:50.101Z,21.70
2022-12-31T18:34:21.115Z,21.60
2022-12-31T18:36:52.060Z,21.60
2022-12-31T18:39:23.002Z,21.60
2022-12-31T18:41:53.894Z,21.20
2022-12-31T18:44:25.092Z,21.30
2022-12-31T18:46:56.026Z,21.60
2022-12-31T18:49:26.924Z,21.50
2022-12-31T18:51:59.231Z,21.20
2022-12-31T18:54:30.158Z,21.30
2022-12-31T18:57:01.105Z,21.40
2022-12-31T18:59:32.028Z,21.20
2022-12-31T19:02:03.271Z,21.10
2022-12-31T19:04:34.205Z,21.10
2022-12-31T19:07:05.685Z,21.10
2022-12-31T19:09:46.088Z,21.00
2022-12-31T19:12:17.808Z,21.10
2022-12-31T19:14:48.708Z,21.20
2022-12-31T19:17:21.510Z,21.10
2022-12-31T19:19:52.382Z,21.00
2022-12-31T19:22:23.292Z,20.90
2022-12-31T19:24:54.135Z,20.90
2022-12-31T19:27:26.868Z,21.00
2022-12-31T19:29:57.793Z,20.80
2022-12-31T19:32:29.007Z,20.70
2022-12-31T19:34:59.904Z,20.70
2022-12-31T19:37:30.773Z,20.60
2022-12-31T19:40:01.678Z,20.50
2022-12-31T19:42:32.567Z,20.50
2022-12-31T19:45:03.835Z,20.40
2022-12-31T19:47:34.723Z,20.50
2022-12-31T19:50:06.179Z,20.40
2022-12-31T19:52:37.558Z,20.40
2022-12-31T19:55:11.642Z,20.40
2022-12-31T19:57:42.988Z,20.40
2022-12-31T20:00:16.619Z,20.40
2022-12-31T20:02:49.010Z,20.50
2022-12-31T20:05:20.001Z,20.50
2022-12-31T20:07:50.975Z,20.30
2022-12-31T20:10:21.874Z,20.60
2022-12-31T20:12:52.753Z,20.70
2022-12-31T20:15:23.648Z,20.80
2022-12-31T20:17:57.771Z,20.90
2022-12-31T20:20:31.516Z,21.00
2022-12-31T20:23:02.717Z,20.90
2022-12-31T20:25:33.581Z,21.10
2022-12-31T20:28:04.872Z,20.90
2022-12-31T20:30:38.916Z,21.00
2022-12-31T20:33:14.420Z,21.10
2022-12-31T20:35:48.676Z,21.00
2022-12-31T20:38:22.547Z,20.90
2022-12-31T20:40:53.534Z,20.70
2022-12-31T20:43:24.421Z,20.70
2022-12-31T20:45:55.329Z,20.60
2022-12-31T20:48:26.357Z,20.60
2022-12-31T20:50:58.191Z,20.60
2022-12-31T20:53:29.116Z,21.00
2022-12-31T20:56:05.998Z,20.90
2022-12-31T20:58:36.900Z,20.80
2022-12-31T21:01:09.791Z,20.80
2022-12-31T21:06:35.758Z,20.60
2022-12-31T21:09:08.198Z,20.90
2022-12-31T21:11:57.441Z,20.90
2022-12-31T21:14:28.317Z,20.80
2022-12-31T21:16:59.248Z,20.80
2022-12-31T21:19:30.114Z,20.60
2022-12-31T21:22:01.127Z,20.40
2022-12-31T21:24:32.019Z,20.40
2022-12-31T21:27:02.961Z,20.20
2022-12-31T21:29:34.900Z,20.20
2022-12-31T21:32:06.556Z,20.00
2022-12-31T21:34:37.575Z,20.30
2022-12-31T21:37:08.482Z,19.90
2022-12-31T21:39:39.319Z,20.10
2022-12-31T21:42:10.205Z,20.00
2022-12-31T21:44:41.062Z,20.20
2022-12-31T21:47:35.676Z,20.00
2022-12-31T21:50:10.221Z,19.70
2022-12-31T21:52:41.147Z,19.80
2022-12-31T21:55:45.093Z,20.00
2022-12-31T21:58:26.467Z,19.80
2022-12-31T22:01:18.408Z,19.80
2022-12-31T22:03:49.522Z,19.60
2022-12-31T22:06:24.836Z,19.80
2022-12-31T22:08:57.017Z,19.70
2022-12-31T22:11:28.829Z,19.70
2022-12-31T22:13:59.830Z,19.70
2022-12-31T22:16:30.906Z,19.70
2022-12-31T22:19:01.925Z,19.60
2022-12-31T22:21:32.933Z,19.30
2022-12-31T22:24:04.121Z,19.50
2022-12-31T22:26:35.132Z,19.40
2022-12-31T22:29:06.080Z,19.50
2022-12-31T22:31:36.984Z,19.80
2022-12-31T22:34:08.036Z,19.40
2022-12-31T22:36:38.967Z,19.40
2022-12-31T22:39:43.809Z,19.30
2022-12-31T22:42:06.592Z,19.30
2022-12-31T22:44:37.530Z,19.00
2022-12-31T22:47:09.015Z,19.30
2022-12-31T22:49:39.889Z,19.10
2022-12-31T22:52:10.862Z,19.30
2022-12-31T22:54:41.758Z,19.40
2022-12-31T22:57:17.900Z,19.60
2022-12-31T22:59:52.076Z,19.60
2022-12-31T23:02:22.977Z,19.50
2022-12-31T23:04:53.936Z,19.40
2022-12-31T23:07:44.784Z,19.10
2022-12-31T23:10:34.162Z,18.90
2022-12-31T23:13:23.335Z,18.90
2022-12-31T23:16:12.673Z,18.60
2022-12-31T23:19:05.601Z,18.40
2022-12-31T23:21:55.732Z,18.20
2022-12-31T23:24:31.588Z,18.80
2022-12-31T23:27:03.049Z,19.00
2022-12-31T23:29:34.145Z,18.70
2022-12-31T23:32:06.802Z,18.80
2022-12-31T23:34:37.797Z,19.30
2022-12-31T23:37:08.841Z,19.20
2022-12-31T23:39:40.109Z,19.40
2022-12-31T23:42:11.027Z,19.00
2022-12-31T23:44:42.329Z,18.90
2022-12-31T23:47:13.575Z,19.00
2022-12-31T23:49:44.482Z,18.90
2022-12-31T23:52:15.578Z,18.90
2022-12-31T23:54:46.480Z,19.00
2022-12-31T23:57:17.391Z,19.30
2022-12-31T23:59:48.285Z,18.80
